Time;durP1;ratioP1;P1;durP2;ratioP2;P2;SDS_P1;SDS_P2;PMS_P1;PMS_P2;Temp;Humidity;BMP_temperature;BMP_pressure;BME280_temperature;BME280_humidity;BME280_pressure;Samples;Min_cycle;Max_cycle;Signal;HPM_P1;HPM_P2
2022/05/19 00:02:00;;;;;;;;;;;12.70;69.70;;;;;;5089255;28;19908;-57
2022/05/19 00:04:26;;;;;;;;;;;12.70;70.10;;;;;;5088101;28;20449;-56
2022/05/19 00:06:52;;;;;;;;;;;12.70;70.70;;;;;;5090612;28;20327;-57
2022/05/19 00:09:18;;;;;;;;;;;12.70;70.30;;;;;;5089313;28;19951;-57
2022/05/19 00:11:44;;;;;;;;;;;12.70;70.10;;;;;;5089744;28;19908;-57
2022/05/19 00:14:10;;;;;;;;;;;12.60;70.30;;;;;;5089251;28;20412;-57
2022/05/19 00:16:36;;;;;;;;;;;12.60;70.70;;;;;;5089446;28;20002;-57
2022/05/19 00:19:02;;;;;;;;;;;12.60;70.60;;;;;;5088926;28;20367;-57
2022/05/19 00:21:27;;;;;;;;;;;12.50;71.20;;;;;;5085498;28;19926;-57
2022/05/19 00:23:53;;;;;;;;;;;12.50;71.10;;;;;;5089113;28;20330;-57
2022/05/19 00:26:19;;;;;;;;;;;12.50;70.90;;;;;;5088188;28;20011;-57
2022/05/19 00:28:45;;;;;;;;;;;12.40;70.70;;;;;;5087358;28;20455;-57
2022/05/19 00:31:10;;;;;;;;;;;12.40;71.40;;;;;;5087216;28;19948;-57
2022/05/19 00:33:36;;;;;;;;;;;12.40;71.00;;;;;;5089329;28;20298;-57
2022/05/19 00:36:09;;;;;;;;;;;12.30;71.30;;;;;;5089259;28;19908;-57
2022/05/19 00:38:35;;;;;;;;;;;12.30;71.30;;;;;;5090351;28;20281;-57
2022/05/19 00:41:00;;;;;;;;;;;12.30;71.50;;;;;;5088930;28;20011;-57
2022/05/19 00:43:27;;;;;;;;;;;12.30;71.60;;;;;;5086831;28;19995;-58
2022/05/19 00:45:56;;;;;;;;;;;12.30;71.70;;;;;;5090285;28;19915;-57
2022/05/19 00:48:24;;;;;;;;;;;12.20;71.50;;;;;;5088995;28;19916;-57
2022/05/19 00:50:55;;;;;;;;;;;12.20;71.80;;;;;;5089419;28;20321;-56
2022/05/19 00:53:23;;;;;;;;;;;12.20;72.00;;;;;;5087754;28;19908;-57
2022/05/19 00:55:50;;;;;;;;;;;12.20;72.00;;;;;;5089835;28;20280;-56
2022/05/19 00:58:19;;;;;;;;;;;12.20;72.30;;;;;;5089268;28;19971;-57
2022/05/19 01:00:45;;;;;;;;;;;12.20;72.00;;;;;;5083062;28;19915;-56
2022/05/19 01:03:12;;;;;;;;;;;12.20;72.10;;;;;;5088895;28;19981;-57
2022/05/19 01:05:40;;;;;;;;;;;12.20;72.20;;;;;;5089076;28;20359;-57
2022/05/19 01:08:12;;;;;;;;;;;12.20;72.10;;;;;;5071647;28;19912;-56
2022/05/19 01:10:38;;;;;;;;;;;12.20;72.20;;;;;;5084424;28;19995;-57
2022/05/19 01:13:04;;;;;;;;;;;12.20;72.40;;;;;;5090228;28;19914;-57
2022/05/19 01:15:32;;;;;;;;;;;12.20;72.20;;;;;;5086565;28;19931;-57
2022/05/19 01:17:59;;;;;;;;;;;12.20;72.60;;;;;;5084663;28;19916;-57
2022/05/19 01:20:26;;;;;;;;;;;12.20;72.80;;;;;;5089493;28;20013;-57
2022/05/19 01:22:54;;;;;;;;;;;12.20;72.60;;;;;;5090072;28;19958;-57
2022/05/19 01:25:35;;;;;;;;;;;12.20;72.30;;;;;;5087881;28;19912;-57
2022/05/19 01:28:00;;;;;;;;;;;12.20;72.60;;;;;;5088788;28;20257;-56
2022/05/19 01:30:26;;;;;;;;;;;12.20;72.40;;;;;;5089358;28;19915;-56
2022/05/19 01:32:52;;;;;;;;;;;12.20;72.40;;;;;;5087449;28;20008;-57
2022/05/19 01:35:18;;;;;;;;;;;12.20;72.30;;;;;;5088055;28;20010;-56
2022/05/19 01:37:43;;;;;;;;;;;12.20;72.50;;;;;;5089216;28;20016;-57
2022/05/19 01:40:09;;;;;;;;;;;12.20;72.80;;;;;;5091464;28;20010;-57
2022/05/19 01:42:34;;;;;;;;;;;12.20;72.30;;;;;;5093251;28;19952;-57
2022/05/19 01:45:19;;;;;;;;;;;12.20;72.50;;;;;;5093318;28;19908;-57
2022/05/19 01:47:58;;;;;;;;;;;12.20;72.90;;;;;;5091311;28;19912;-56
2022/05/19 01:50:23;;;;;;;;;;;12.20;72.80;;;;;;5087555;28;19915;-57
2022/05/19 01:52:55;;;;;;;;;;;12.20;72.60;;;;;;5092040;28;19953;-57
2022/05/19 01:55:27;;;;;;;;;;;12.20;72.90;;;;;;5089935;28;19943;-57
2022/05/19 01:57:58;;;;;;;;;;;12.20;72.40;;;;;;5093502;28;19907;-57
2022/05/19 02:00:25;;;;;;;;;;;12.20;72.40;;;;;;5089043;28;19908;-56
2022/05/19 02:02:50;;;;;;;;;;;12.20;72.30;;;;;;5087992;28;19908;-57
2022/05/19 02:05:39;;;;;;;;;;;12.20;72.70;;;;;;5089736;28;19908;-57
2022/05/19 02:08:07;;;;;;;;;;;12.20;72.50;;;;;;5090573;28;20374;-57
2022/05/19 02:10:36;;;;;;;;;;;12.20;72.70;;;;;;5087593;28;19908;-57
2022/05/19 02:13:03;;;;;;;;;;;12.20;72.70;;;;;;5091943;28;19943;-57
2022/05/19 02:15:30;;;;;;;;;;;12.20;72.80;;;;;;5089847;28;20280;-57
2022/05/19 02:17:56;;;;;;;;;;;12.20;72.70;;;;;;5091507;28;19926;-57
2022/05/19 02:20:23;;;;;;;;;;;12.20;72.80;;;;;;5091483;28;19912;-56
2022/05/19 02:22:49;;;;;;;;;;;12.20;72.70;;;;;;5086562;28;19909;-57
2022/05/19 02:25:18;;;;;;;;;;;12.20;72.70;;;;;;5088393;28;19973;-56
2022/05/19 02:28:04;;;;;;;;;;;12.20;72.50;;;;;;5089631;28;20303;-57
2022/05/19 02:30:34;;;;;;;;;;;12.20;72.70;;;;;;5088385;28;19908;-57
2022/05/19 02:32:59;;;;;;;;;;;12.20;73.00;;;;;;5087846;28;19969;-57
2022/05/19 02:35:26;;;;;;;;;;;12.20;73.70;;;;;;5089413;28;19912;-57
2022/05/19 02:37:52;;;;;;;;;;;12.30;73.00;;;;;;5089926;28;19959;-57
2022/05/19 02:40:18;;;;;;;;;;;12.30;72.80;;;;;;5092171;28;19907;-57
2022/05/19 02:42:44;;;;;;;;;;;12.30;72.90;;;;;;5088739;28;20041;-57
2022/05/19 02:45:10;;;;;;;;;;;12.30;73.10;;;;;;5091272;28;19994;-56
2022/05/19 02:47:36;;;;;;;;;;;12.30;72.90;;;;;;5090497;28;19962;-57
2022/05/19 02:50:02;;;;;;;;;;;12.40;73.00;;;;;;5090930;28;19944;-57
2022/05/19 02:52:27;;;;;;;;;;;12.40;72.70;;;;;;5090720;28;20390;-57
2022/05/19 02:54:53;;;;;;;;;;;12.40;72.80;;;;;;5089505;28;20329;-57
2022/05/19 02:57:18;;;;;;;;;;;12.40;72.30;;;;;;5090725;28;19908;-57
2022/05/19 02:59:44;;;;;;;;;;;12.40;72.60;;;;;;5089836;28;19916;-57
2022/05/19 03:02:09;;;;;;;;;;;12.50;72.60;;;;;;5090639;28;19915;-56
2022/05/19 03:04:35;;;;;;;;;;;12.50;72.20;;;;;;5089812;28;20389;-57
2022/05/19 03:07:01;;;;;;;;;;;12.50;72.40;;;;;;5089955;28;19963;-57
2022/05/19 03:09:26;;;;;;;;;;;12.60;72.00;;;;;;5091660;28;20667;-56
2022/05/19 03:11:52;;;;;;;;;;;12.70;71.90;;;;;;5086273;28;19970;-57
2022/05/19 03:14:17;;;;;;;;;;;12.70;72.20;;;;;;5090691;28;19977;-57
2022/05/19 03:16:43;;;;;;;;;;;12.80;71.90;;;;;;5089184;28;19994;-57
2022/05/19 03:19:09;;;;;;;;;;;12.90;72.10;;;;;;5091683;28;19915;-57
2022/05/19 03:21:35;;;;;;;;;;;13.00;72.00;;;;;;5084364;28;19912;-57
2022/05/19 03:24:01;;;;;;;;;;;13.20;71.90;;;;;;5090493;28;20000;-57
2022/05/19 03:26:26;;;;;;;;;;;13.30;71.80;;;;;;5090202;28;19965;-56
2022/05/19 03:28:52;;;;;;;;;;;13.40;71.80;;;;;;5088417;28;19908;-57
2022/05/19 03:31:17;;;;;;;;;;;13.60;71.90;;;;;;5087590;28;19911;-57
2022/05/19 03:33:43;;;;;;;;;;;13.80;71.90;;;;;;5089227;28;20372;-56
2022/05/19 03:36:10;;;;;;;;;;;14.10;72.00;;;;;;5090110;28;19908;-57
2022/05/19 03:38:36;;;;;;;;;;;14.40;72.00;;;;;;5091158;28;20344;-57
2022/05/19 03:41:02;;;;;;;;;;;14.70;71.30;;;;;;5089819;28;19916;-57
2022/05/19 03:43:27;;;;;;;;;;;15.00;71.60;;;;;;5090021;28;19915;-57
2022/05/19 03:45:53;;;;;;;;;;;15.40;71.00;;;;;;5088092;28;20693;-57
2022/05/19 03:48:19;;;;;;;;;;;15.90;70.30;;;;;;5090881;28;20275;-57
2022/05/19 03:50:45;;;;;;;;;;;16.50;69.50;;;;;;5089359;28;19908;-57
2022/05/19 03:53:11;;;;;;;;;;;17.20;68.20;;;;;;5089397;28;19912;-57
2022/05/19 03:55:37;;;;;;;;;;;18.00;67.30;;;;;;5089069;28;19908;-57
2022/05/19 03:58:03;;;;;;;;;;;18.90;65.70;;;;;;5089171;28;20603;-57
2022/05/19 04:00:28;;;;;;;;;;;19.70;64.00;;;;;;5089845;28;19915;-57
2022/05/19 04:02:54;;;;;;;;;;;20.50;62.30;;;;;;5089316;28;20379;-57
2022/05/19 04:05:20;;;;;;;;;;;21.20;61.30;;;;;;5091187;28;19915;-58
2022/05/19 04:07:46;;;;;;;;;;;21.90;59.40;;;;;;5089569;28;19912;-57
2022/05/19 04:10:12;;;;;;;;;;;22.50;58.90;;;;;;5090978;28;19999;-57
2022/05/19 04:12:37;;;;;;;;;;;23.10;57.70;;;;;;5086305;28;19915;-58
2022/05/19 04:15:04;;;;;;;;;;;23.60;56.70;;;;;;5089313;28;19907;-57
2022/05/19 04:17:33;;;;;;;;;;;24.10;56.20;;;;;;5093001;28;19915;-57
2022/05/19 04:20:03;;;;;;;;;;;24.60;55.50;;;;;;5090829;28;19908;-58
2022/05/19 04:22:28;;;;;;;;;;;25.10;55.10;;;;;;5092418;28;19908;-57
2022/05/19 04:24:54;;;;;;;;;;;25.60;54.10;;;;;;5090634;28;19920;-58
2022/05/19 04:27:20;;;;;;;;;;;25.90;53.30;;;;;;5088289;28;19938;-56
2022/05/19 04:29:48;;;;;;;;;;;26.30;52.50;;;;;;5091362;28;20382;-58
2022/05/19 04:32:15;;;;;;;;;;;26.60;52.30;;;;;;5089032;28;20260;-58
2022/05/19 04:34:41;;;;;;;;;;;26.90;51.80;;;;;;5088252;28;19912;-57
2022/05/19 04:37:07;;;;;;;;;;;27.20;51.10;;;;;;5088253;28;20275;-57
2022/05/19 04:39:32;;;;;;;;;;;27.40;51.10;;;;;;5089673;28;19908;-58
2022/05/19 04:41:58;;;;;;;;;;;27.60;50.40;;;;;;5090432;28;19915;-58
2022/05/19 04:44:23;;;;;;;;;;;27.90;50.70;;;;;;5087796;28;19908;-58
2022/05/19 04:46:49;;;;;;;;;;;28.10;50.10;;;;;;5085726;28;19912;-58
2022/05/19 04:49:14;;;;;;;;;;;28.30;50.10;;;;;;5088014;28;19931;-58
2022/05/19 04:51:40;;;;;;;;;;;28.60;49.40;;;;;;5086614;28;19915;-58
2022/05/19 04:54:05;;;;;;;;;;;28.80;49.10;;;;;;5088867;28;19912;-57
2022/05/19 04:56:31;;;;;;;;;;;28.90;48.30;;;;;;5087604;28;21179;-58
2022/05/19 04:58:57;;;;;;;;;;;29.10;48.80;;;;;;5084625;28;20356;-58
2022/05/19 05:01:23;;;;;;;;;;;29.20;48.40;;;;;;5085806;28;20325;-58
2022/05/19 05:03:48;;;;;;;;;;;29.30;48.40;;;;;;5087068;28;19908;-58
2022/05/19 05:06:14;;;;;;;;;;;29.50;47.60;;;;;;5089733;28;19914;-58
2022/05/19 05:08:39;;;;;;;;;;;29.60;48.00;;;;;;5083936;28;19908;-57
2022/05/19 05:11:05;;;;;;;;;;;29.60;47.70;;;;;;5079222;28;19916;-58
2022/05/19 05:13:31;;;;;;;;;;;29.70;47.20;;;;;;5081661;28;19924;-58
2022/05/19 05:15:58;;;;;;;;;;;29.80;47.30;;;;;;5085408;28;19908;-57
2022/05/19 05:18:23;;;;;;;;;;;29.80;46.50;;;;;;5090623;28;19920;-56
2022/05/19 05:20:49;;;;;;;;;;;29.80;45.90;;;;;;5089081;28;19935;-58
2022/05/19 05:23:14;;;;;;;;;;;29.60;45.30;;;;;;5090708;28;20284;-57
2022/05/19 05:25:40;;;;;;;;;;;29.10;45.20;;;;;;5089509;28;19908;-57
2022/05/19 05:28:08;;;;;;;;;;;28.30;45.30;;;;;;5090478;28;19928;-58
2022/05/19 05:30:33;;;;;;;;;;;27.40;45.90;;;;;;5071557;28;19915;-58
2022/05/19 05:33:03;;;;;;;;;;;26.40;46.00;;;;;;5087402;28;20283;-58
2022/05/19 05:35:28;;;;;;;;;;;25.50;46.80;;;;;;5090447;28;19912;-58
2022/05/19 05:37:54;;;;;;;;;;;24.60;47.90;;;;;;5086594;28;19912;-58
2022/05/19 05:40:19;;;;;;;;;;;23.80;48.80;;;;;;5082999;28;19912;-57
2022/05/19 05:42:45;;;;;;;;;;;23.20;49.70;;;;;;5088553;28;19909;-58
2022/05/19 05:45:12;;;;;;;;;;;22.60;49.70;;;;;;5093507;28;19912;-58
2022/05/19 05:47:37;;;;;;;;;;;22.10;50.50;;;;;;5079087;28;19966;-58
2022/05/19 05:50:03;;;;;;;;;;;21.80;51.10;;;;;;5085645;28;19966;-58
2022/05/19 05:52:29;;;;;;;;;;;21.40;51.50;;;;;;5084856;28;19949;-58
2022/05/19 05:54:55;;;;;;;;;;;21.10;51.90;;;;;;5083949;28;19930;-58
2022/05/19 05:57:20;;;;;;;;;;;20.80;52.20;;;;;;5085900;28;19938;-58
2022/05/19 05:59:46;;;;;;;;;;;20.60;52.60;;;;;;5085673;28;19916;-57
2022/05/19 06:02:11;;;;;;;;;;;20.40;52.70;;;;;;5087206;28;19915;-56
2022/05/19 06:04:37;;;;;;;;;;;20.20;52.90;;;;;;5085166;28;20727;-57
2022/05/19 06:07:03;;;;;;;;;;;20.10;53.40;;;;;;5086317;28;19920;-57
2022/05/19 06:09:28;;;;;;;;;;;19.90;53.40;;;;;;5086534;28;19919;-58
2022/05/19 06:11:54;;;;;;;;;;;19.80;53.50;;;;;;5092782;28;19954;-58
2022/05/19 06:14:19;;;;;;;;;;;19.70;53.50;;;;;;5089745;28;19919;-58
2022/05/19 06:16:45;;;;;;;;;;;19.60;53.90;;;;;;5086102;28;20303;-58
2022/05/19 06:19:10;;;;;;;;;;;19.50;53.90;;;;;;5086776;28;19916;-58
2022/05/19 06:21:39;;;;;;;;;;;19.40;54.20;;;;;;5087507;28;19919;-57
2022/05/19 06:24:08;;;;;;;;;;;19.30;54.30;;;;;;5083266;28;19942;-58
2022/05/19 06:26:35;;;;;;;;;;;19.30;54.40;;;;;;5086467;28;20360;-58
2022/05/19 06:29:00;;;;;;;;;;;19.20;54.50;;;;;;5088966;28;19908;-58
2022/05/19 06:31:26;;;;;;;;;;;19.10;54.80;;;;;;5084208;28;19922;-58
2022/05/19 06:33:51;;;;;;;;;;;19.10;54.90;;;;;;5087250;28;19911;-57
2022/05/19 06:36:18;;;;;;;;;;;19.10;54.80;;;;;;5079622;28;20068;-57
2022/05/19 06:38:44;;;;;;;;;;;19.10;54.80;;;;;;5088186;28;20421;-57
2022/05/19 06:43:53;;;;;;;;;;;19.00;54.90;;;;;;5087759;28;19918;-57
2022/05/19 06:46:19;;;;;;;;;;;19.00;55.20;;;;;;5083947;28;19912;-58
2022/05/19 06:48:45;;;;;;;;;;;19.00;54.90;;;;;;5075925;28;19916;-58
2022/05/19 06:51:10;;;;;;;;;;;19.00;54.90;;;;;;5077587;28;20067;-56
2022/05/19 06:53:36;;;;;;;;;;;19.00;55.00;;;;;;5078939;28;20081;-58
2022/05/19 06:56:02;;;;;;;;;;;18.90;54.80;;;;;;5080446;28;19912;-58
2022/05/19 06:58:27;;;;;;;;;;;18.90;55.00;;;;;;5075573;28;20275;-58
2022/05/19 07:00:53;;;;;;;;;;;18.90;55.10;;;;;;5071948;28;19914;-57
2022/05/19 07:03:18;;;;;;;;;;;18.90;55.40;;;;;;5080906;28;19913;-57
2022/05/19 07:05:44;;;;;;;;;;;18.90;55.30;;;;;;5078048;28;19923;-57
2022/05/19 07:08:10;;;;;;;;;;;18.90;55.10;;;;;;5081481;28;19915;-57
2022/05/19 07:10:36;;;;;;;;;;;18.90;55.20;;;;;;5073026;28;19952;-57
2022/05/19 07:13:01;;;;;;;;;;;18.90;55.20;;;;;;5073632;28;20002;-57
2022/05/19 07:15:28;;;;;;;;;;;18.90;55.10;;;;;;5083271;28;19911;-56
2022/05/19 07:17:54;;;;;;;;;;;18.90;55.00;;;;;;5077377;28;19922;-57
2022/05/19 07:23:05;;;;;;;;;;;18.90;55.00;;;;;;5079709;28;20014;-57
2022/05/19 07:25:31;;;;;;;;;;;18.90;55.00;;;;;;5081682;28;19920;-57
2022/05/19 07:27:56;;;;;;;;;;;18.90;55.20;;;;;;5077912;28;20320;-57
2022/05/19 07:30:22;;;;;;;;;;;18.90;55.20;;;;;;5077314;28;19916;-57
2022/05/19 07:32:47;;;;;;;;;;;18.90;55.20;;;;;;5083891;28;19908;-57
2022/05/19 07:35:14;;;;;;;;;;;19.00;55.20;;;;;;5083596;28;19912;-57
2022/05/19 07:37:40;;;;;;;;;;;19.00;54.80;;;;;;5073371;28;20352;-57
2022/05/19 07:40:06;;;;;;;;;;;19.00;54.70;;;;;;5080820;28;19914;-58
2022/05/19 07:42:32;;;;;;;;;;;19.00;54.70;;;;;;5077457;28;21659;-58
2022/05/19 07:44:57;;;;;;;;;;;19.00;54.50;;;;;;5079996;28;19923;-58
2022/05/19 07:47:23;;;;;;;;;;;19.00;54.40;;;;;;5072376;28;20365;-57
2022/05/19 07:49:49;;;;;;;;;;;19.00;54.50;;;;;;5068153;28;20416;-57
2022/05/19 07:52:14;;;;;;;;;;;19.00;54.60;;;;;;5080068;28;19927;-57
2022/05/19 07:54:40;;;;;;;;;;;19.00;54.30;;;;;;5081145;28;20391;-58
2022/05/19 07:57:06;;;;;;;;;;;19.00;54.10;;;;;;5077732;28;19923;-57
2022/05/19 07:59:32;;;;;;;;;;;19.00;54.00;;;;;;5077596;28;19997;-57
2022/05/19 08:01:57;;;;;;;;;;;19.00;53.50;;;;;;5075115;28;19912;-56
2022/05/19 08:07:36;;;;;;;;;;;19.10;53.40;;;;;;5033464;28;19927;-58
2022/05/19 08:15:49;;;;;;;;;;;19.10;52.70;;;;;;5068910;28;19923;-56
2022/05/19 08:18:15;;;;;;;;;;;19.10;52.90;;;;;;5066396;28;19915;-56
2022/05/19 08:20:48;;;;;;;;;;;19.00;52.90;;;;;;5057636;28;20180;-56
2022/05/19 08:23:24;;;;;;;;;;;19.00;52.40;;;;;;5070914;28;20031;-57
2022/05/19 08:25:49;;;;;;;;;;;19.00;53.00;;;;;;5072169;28;19918;-58
2022/05/19 08:28:16;;;;;;;;;;;19.00;52.80;;;;;;5073002;28;20280;-58
2022/05/19 08:30:47;;;;;;;;;;;18.90;52.90;;;;;;5069993;28;19998;-58
2022/05/19 08:33:13;;;;;;;;;;;18.90;53.10;;;;;;5073330;28;20278;-58
2022/05/19 08:35:39;;;;;;;;;;;18.90;53.30;;;;;;5079294;28;20046;-57
2022/05/19 08:38:05;;;;;;;;;;;18.80;53.10;;;;;;5070780;28;19922;-58
2022/05/19 08:40:33;;;;;;;;;;;18.80;53.30;;;;;;5069586;28;19943;-56
2022/05/19 08:42:59;;;;;;;;;;;18.80;53.10;;;;;;5075525;28;19912;-55
2022/05/19 08:45:35;;;;;;;;;;;18.70;53.20;;;;;;5074388;28;19935;-56
2022/05/19 08:48:03;;;;;;;;;;;18.70;53.00;;;;;;5062005;28;21199;-55
2022/05/19 08:50:31;;;;;;;;;;;18.60;53.40;;;;;;5074143;28;19947;-57
2022/05/19 08:52:56;;;;;;;;;;;18.60;53.10;;;;;;5071264;28;19914;-57
2022/05/19 08:55:22;;;;;;;;;;;18.60;53.50;;;;;;5077862;28;19923;-56
2022/05/19 08:57:57;;;;;;;;;;;18.60;53.20;;;;;;5079463;28;20019;-58
2022/05/19 09:00:30;;;;;;;;;;;18.50;53.20;;;;;;5075990;28;19923;-57
2022/05/19 09:03:14;;;;;;;;;;;18.50;52.70;;;;;;5069017;28;20421;-58
2022/05/19 09:06:03;;;;;;;;;;;18.50;52.80;;;;;;5079629;28;19923;-57
2022/05/19 09:08:47;;;;;;;;;;;18.50;52.50;;;;;;5077617;28;19961;-59
2022/05/19 09:11:18;;;;;;;;;;;18.40;53.00;;;;;;5078938;28;19916;-58
2022/05/19 09:13:54;;;;;;;;;;;18.40;52.50;;;;;;5079213;28;19912;-58
2022/05/19 09:16:20;;;;;;;;;;;18.40;52.70;;;;;;5079803;28;19923;-58
2022/05/19 09:19:06;;;;;;;;;;;18.40;53.40;;;;;;5082310;28;20295;-58
2022/05/19 09:21:33;;;;;;;;;;;18.40;53.40;;;;;;5082111;28;19916;-58
2022/05/19 09:23:59;;;;;;;;;;;18.50;52.40;;;;;;5077045;28;20018;-59
2022/05/19 09:26:31;;;;;;;;;;;18.40;52.60;;;;;;5083692;28;20048;-58
2022/05/19 09:28:58;;;;;;;;;;;18.50;51.90;;;;;;5073365;28;19935;-59
2022/05/19 09:31:37;;;;;;;;;;;18.40;51.50;;;;;;5074051;28;19977;-59
2022/05/19 09:34:03;;;;;;;;;;;18.40;52.40;;;;;;5080764;28;19919;-57
2022/05/19 09:36:29;;;;;;;;;;;18.40;51.10;;;;;;5079986;28;19916;-58
2022/05/19 09:38:59;;;;;;;;;;;18.50;51.40;;;;;;5077881;28;19961;-57
2022/05/19 09:41:28;;;;;;;;;;;18.50;51.50;;;;;;5080388;28;19916;-58
2022/05/19 09:43:55;;;;;;;;;;;18.50;52.20;;;;;;5076147;28;19912;-58
2022/05/19 09:46:22;;;;;;;;;;;18.50;52.20;;;;;;5074676;28;19999;-57
2022/05/19 09:48:49;;;;;;;;;;;18.50;52.10;;;;;;5074041;28;20379;-58
2022/05/19 09:51:16;;;;;;;;;;;18.50;51.90;;;;;;5075626;28;19912;-58
2022/05/19 09:53:46;;;;;;;;;;;18.60;52.00;;;;;;5067012;28;19916;-58
2022/05/19 09:56:13;;;;;;;;;;;18.60;51.90;;;;;;5066580;28;20400;-57
2022/05/19 09:58:43;;;;;;;;;;;18.60;51.70;;;;;;5070891;28;19916;-58
2022/05/19 10:01:17;;;;;;;;;;;18.60;51.50;;;;;;5078521;28;20283;-58
2022/05/19 10:03:55;;;;;;;;;;;18.50;51.30;;;;;;5071343;28;19916;-58
2022/05/19 10:06:22;;;;;;;;;;;18.50;51.60;;;;;;5065646;28;19963;-58
2022/05/19 10:08:56;;;;;;;;;;;18.50;51.50;;;;;;5066597;28;19916;-57
2022/05/19 10:11:27;;;;;;;;;;;18.50;51.30;;;;;;5078779;28;19916;-58
2022/05/19 10:14:07;;;;;;;;;;;18.50;51.30;;;;;;5078642;28;20303;-58
2022/05/19 10:16:50;;;;;;;;;;;18.50;52.00;;;;;;5074611;28;19965;-58
2022/05/19 10:19:35;;;;;;;;;;;18.50;52.00;;;;;;5073023;28;20339;-58
2022/05/19 10:22:00;;;;;;;;;;;18.60;51.80;;;;;;5076047;28;19934;-58
2022/05/19 10:24:29;;;;;;;;;;;18.60;52.40;;;;;;5067587;28;19919;-58
2022/05/19 10:31:02;;;;;;;;;;;18.60;51.20;;;;;;5070390;28;19923;-58
2022/05/19 10:32:52;;;;;;;;;;;18.60;51.40;;;;;;5076787;28;19989;-58
2022/05/19 10:35:37;;;;;;;;;;;18.60;52.10;;;;;;5077994;28;19923;-58
2022/05/19 10:38:21;;;;;;;;;;;18.60;51.60;;;;;;5073652;28;19962;-58
2022/05/19 10:41:08;;;;;;;;;;;18.60;51.40;;;;;;5079550;28;19924;-57
2022/05/19 10:43:42;;;;;;;;;;;18.60;52.10;;;;;;5074136;28;19916;-58
2022/05/19 10:46:12;;;;;;;;;;;18.60;52.30;;;;;;5074377;28;19939;-57
2022/05/19 10:48:44;;;;;;;;;;;18.60;52.10;;;;;;5074516;28;19919;-58
2022/05/19 10:51:12;;;;;;;;;;;18.70;51.60;;;;;;5076569;28;20010;-58
2022/05/19 10:53:50;;;;;;;;;;;18.70;51.10;;;;;;5076157;28;19919;-58
2022/05/19 10:56:25;;;;;;;;;;;18.70;50.90;;;;;;5075914;28;20012;-58
2022/05/19 10:59:03;;;;;;;;;;;18.70;51.00;;;;;;5075762;28;19912;-57
2022/05/19 11:01:33;;;;;;;;;;;18.70;51.00;;;;;;5072835;28;20006;-58
2022/05/19 11:03:59;;;;;;;;;;;18.70;50.80;;;;;;5061524;28;19916;-59
2022/05/19 11:06:34;;;;;;;;;;;18.70;50.90;;;;;;5083959;28;19912;-59
2022/05/19 11:09:18;;;;;;;;;;;18.70;50.70;;;;;;5076196;28;20736;-57
2022/05/19 11:12:02;;;;;;;;;;;18.80;50.40;;;;;;5080078;28;19969;-59
2022/05/19 11:14:47;;;;;;;;;;;18.80;50.30;;;;;;5082883;28;19922;-58
2022/05/19 11:17:17;;;;;;;;;;;18.80;50.00;;;;;;5082554;28;20014;-57
2022/05/19 11:19:53;;;;;;;;;;;18.80;49.80;;;;;;5079227;28;20288;-58
2022/05/19 11:22:21;;;;;;;;;;;18.80;50.20;;;;;;5071229;28;19912;-58
2022/05/19 11:27:53;;;;;;;;;;;18.90;51.30;;;;;;5077429;28;19935;-58
2022/05/19 11:30:21;;;;;;;;;;;18.90;51.20;;;;;;5068683;28;20411;-59
2022/05/19 11:32:52;;;;;;;;;;;18.90;50.90;;;;;;5075297;28;19912;-58
2022/05/19 11:35:36;;;;;;;;;;;18.90;51.30;;;;;;5073128;28;19935;-58
2022/05/19 11:38:07;;;;;;;;;;;18.90;51.40;;;;;;5067359;28;20660;-59
2022/05/19 11:40:36;;;;;;;;;;;19.00;50.70;;;;;;5064833;28;19915;-59
2022/05/19 11:43:01;;;;;;;;;;;19.00;50.70;;;;;;5069973;28;20015;-58
2022/05/19 11:45:27;;;;;;;;;;;19.00;50.90;;;;;;5066211;28;19916;-59
2022/05/19 11:56:20;;;;;;;;;;;19.00;50.30;;;;;;5071608;28;20036;-60
2022/05/19 11:58:45;;;;;;;;;;;19.00;50.60;;;;;;5074393;28;19943;-58
2022/05/19 12:01:18;;;;;;;;;;;19.10;51.10;;;;;;5066902;28;20068;-58
2022/05/19 12:04:13;;;;;;;;;;;19.10;51.40;;;;;;5076181;28;19911;-58
2022/05/19 12:06:49;;;;;;;;;;;19.10;51.00;;;;;;5056506;28;19943;-57
2022/05/19 12:09:23;;;;;;;;;;;19.10;51.50;;;;;;5075013;28;19912;-56
2022/05/19 12:11:56;;;;;;;;;;;19.20;51.20;;;;;;5075080;28;19961;-57
2022/05/19 12:14:24;;;;;;;;;;;19.20;51.00;;;;;;5077814;28;19923;-58
2022/05/19 12:17:16;;;;;;;;;;;19.20;50.90;;;;;;5077729;28;19946;-57
2022/05/19 12:19:44;;;;;;;;;;;19.20;51.50;;;;;;5055475;28;19916;-59
2022/05/19 12:22:17;;;;;;;;;;;19.20;50.50;;;;;;5077785;28;19912;-59
2022/05/19 12:25:01;;;;;;;;;;;19.20;50.70;;;;;;5078852;28;19916;-58
2022/05/19 12:27:36;;;;;;;;;;;19.20;50.80;;;;;;5071986;28;20975;-58
2022/05/19 12:31:56;;;;;;;;;;;19.20;50.20;;;;;;5072370;28;19911;-58
2022/05/19 12:33:17;;;;;;;;;;;19.20;50.20;;;;;;5075436;28;19916;-59
2022/05/19 12:35:48;;;;;;;;;;;19.20;50.30;;;;;;5064159;28;19912;-57
2022/05/19 12:38:27;;;;;;;;;;;19.30;50.60;;;;;;5079032;28;19938;-57
2022/05/19 12:40:54;;;;;;;;;;;19.30;50.10;;;;;;5076796;28;19923;-58
2022/05/19 12:43:20;;;;;;;;;;;19.30;49.90;;;;;;5076627;28;19918;-58
2022/05/19 12:45:50;;;;;;;;;;;19.30;50.70;;;;;;5073495;28;19916;-57
2022/05/19 12:48:16;;;;;;;;;;;19.30;50.50;;;;;;5070817;28;19915;-57
2022/05/19 12:50:42;;;;;;;;;;;19.30;50.30;;;;;;5077215;28;19970;-57
2022/05/19 12:53:13;;;;;;;;;;;19.30;49.90;;;;;;5078056;28;19961;-58
2022/05/19 12:55:42;;;;;;;;;;;19.30;50.00;;;;;;5073142;28;19912;-57
2022/05/19 12:58:26;;;;;;;;;;;19.30;50.10;;;;;;5071631;28;21408;-58
2022/05/19 13:00:52;;;;;;;;;;;19.40;50.10;;;;;;5073608;28;19920;-57
2022/05/19 13:03:20;;;;;;;;;;;19.40;49.80;;;;;;5078588;28;19931;-57
2022/05/19 13:05:45;;;;;;;;;;;19.40;50.20;;;;;;5077149;28;19912;-57
2022/05/19 13:08:31;;;;;;;;;;;19.40;49.50;;;;;;5077536;28;20722;-56
2022/05/19 13:10:58;;;;;;;;;;;19.40;49.30;;;;;;5077945;28;19916;-57
2022/05/19 13:13:27;;;;;;;;;;;19.40;49.30;;;;;;5074950;28;19943;-57
2022/05/19 13:15:57;;;;;;;;;;;19.40;49.50;;;;;;5078974;28;19912;-58
2022/05/19 13:18:26;;;;;;;;;;;19.50;49.90;;;;;;5074774;28;19968;-57
2022/05/19 13:21:01;;;;;;;;;;;19.50;50.00;;;;;;5075681;28;19931;-58
2022/05/19 13:23:30;;;;;;;;;;;19.50;49.70;;;;;;5071894;28;19957;-58
2022/05/19 13:25:59;;;;;;;;;;;19.60;49.10;;;;;;5070607;28;19916;-57
2022/05/19 13:31:17;;;;;;;;;;;19.70;48.70;;;;;;5076066;28;19922;-57
2022/05/19 13:33:43;;;;;;;;;;;19.70;49.00;;;;;;5078227;28;19904;-58
2022/05/19 13:36:09;;;;;;;;;;;19.70;49.20;;;;;;5081912;28;19923;-58
2022/05/19 13:38:35;;;;;;;;;;;19.70;49.10;;;;;;5078589;28;20451;-58
2022/05/19 13:41:03;;;;;;;;;;;19.80;48.70;;;;;;5080613;28;19916;-56
2022/05/19 13:43:42;;;;;;;;;;;19.80;48.70;;;;;;5072436;28;19912;-57
2022/05/19 13:46:19;;;;;;;;;;;19.80;48.70;;;;;;5077358;28;19924;-57
2022/05/19 13:48:58;;;;;;;;;;;19.90;48.80;;;;;;5082441;28;19927;-58
2022/05/19 13:51:47;;;;;;;;;;;19.90;48.70;;;;;;5081886;28;20356;-57
2022/05/19 13:54:25;;;;;;;;;;;19.90;49.00;;;;;;5082857;28;19960;-58
2022/05/19 13:56:56;;;;;;;;;;;20.00;48.60;;;;;;5069720;28;20361;-58
2022/05/19 13:59:26;;;;;;;;;;;20.00;48.30;;;;;;5072186;28;19922;-59
2022/05/19 14:01:55;;;;;;;;;;;20.00;48.60;;;;;;5076992;28;19934;-59
2022/05/19 14:04:21;;;;;;;;;;;20.10;48.30;;;;;;5068290;28;19916;-58
2022/05/19 14:06:47;;;;;;;;;;;20.10;48.00;;;;;;5078744;28;19973;-59
2022/05/19 14:09:21;;;;;;;;;;;20.10;48.20;;;;;;5074592;28;20268;-59
2022/05/19 14:11:46;;;;;;;;;;;20.20;48.70;;;;;;5076087;28;19912;-58
2022/05/19 14:14:21;;;;;;;;;;;20.20;48.10;;;;;;5078099;28;19923;-59
2022/05/19 14:16:46;;;;;;;;;;;20.20;47.90;;;;;;5082743;28;20316;-59
2022/05/19 14:19:23;;;;;;;;;;;20.20;47.60;;;;;;5078399;28;19923;-60
2022/05/19 14:21:49;;;;;;;;;;;20.30;47.40;;;;;;5075199;28;19916;-59
2022/05/19 14:24:19;;;;;;;;;;;20.30;47.60;;;;;;5069686;28;19916;-61
2022/05/19 14:26:46;;;;;;;;;;;20.40;47.40;;;;;;5071772;28;19916;-59
2022/05/19 14:29:20;;;;;;;;;;;20.40;47.20;;;;;;5072606;28;20359;-59
2022/05/19 14:31:46;;;;;;;;;;;20.40;47.40;;;;;;5076647;28;19916;-59
2022/05/19 14:34:21;;;;;;;;;;;20.40;47.00;;;;;;5074615;28;19927;-59
2022/05/19 14:36:59;;;;;;;;;;;20.40;46.90;;;;;;5071115;28;19915;-60
2022/05/19 14:39:36;;;;;;;;;;;20.50;47.40;;;;;;5072384;28;20368;-59
2022/05/19 14:44:52;;;;;;;;;;;20.50;47.80;;;;;;5075411;28;19918;-58
2022/05/19 14:47:20;;;;;;;;;;;20.50;47.90;;;;;;5078473;28;20410;-58
2022/05/19 14:49:50;;;;;;;;;;;20.50;48.60;;;;;;5080500;28;19912;-59
2022/05/19 14:52:19;;;;;;;;;;;20.50;47.80;;;;;;5080518;28;20432;-58
2022/05/19 14:54:45;;;;;;;;;;;20.50;47.60;;;;;;5079684;28;20031;-57
2022/05/19 14:57:12;;;;;;;;;;;20.50;47.40;;;;;;5078965;28;20028;-57
2022/05/19 14:59:47;;;;;;;;;;;20.50;47.30;;;;;;5078170;28;19912;-56
2022/05/19 15:02:13;;;;;;;;;;;20.50;46.80;;;;;;5077548;28;20916;-57